Airport ICAO


23:12 UTC

13°C

Clear skies


An affordable passengers' Moving Map for your aircraft. Made for the iPad and the iPhone
More information here

LFMD Mandelieu


Cannes FRANCE   VFR CAVOK


METAR LFMD 182300Z AUTO 26017KT CAVOK 13/02 Q1010 0h12min

TAF LFMD 181400Z 1815/1915 26020KT CAVOK TEMPO 1815/1821 26020G30KT BECMG 1821/1823 26010KT TEMPO 1903/1915 26020KT PROB30 TEMPO 1907/1915 26020G30KT 9h12min





NOTAMS

OPEN